Time;durP1;ratioP1;P1;durP2;ratioP2;P2;SDS_P1;SDS_P2;PMS_P1;PMS_P2;Temp;Humidity;BMP_temperature;BMP_pressure;BME280_temperature;BME280_humidity;BME280_pressure;Samples;Min_cycle;Max_cycle;Signal;HPM_P1;HPM_P2
2022/05/23 00:00:59;;;;;;;14.32;3.11;;;;;;;;;;358411;148;857657;-58
2022/05/23 00:02:00;;;;;;;7.57;3.40;;;;;;;;;;357645;147;858470;-58
2022/05/23 00:03:02;;;;;;;5.88;3.33;;;;;;;;;;357926;147;857257;-56
2022/05/23 00:04:03;;;;;;;7.42;3.86;;;;;;;;;;359348;147;864816;-58
2022/05/23 00:05:06;;;;;;;6.25;3.69;;;;;;;;;;357526;147;857257;-56
2022/05/23 00:06:08;;;;;;;7.50;3.76;;;;;;;;;;356979;147;864856;-57
2022/05/23 00:07:11;;;;;;;6.64;3.77;;;;;;;;;;356911;147;864832;-57
2022/05/23 00:08:13;;;;;;;5.38;3.78;;;;;;;;;;356807;147;864837;-58
2022/05/23 00:09:15;;;;;;;5.81;3.36;;;;;;;;;;358209;147;857213;-57
2022/05/23 00:10:17;;;;;;;8.19;3.73;;;;;;;;;;357975;147;860234;-58
2022/05/23 00:11:19;;;;;;;5.60;3.43;;;;;;;;;;357471;147;860301;-57
2022/05/23 00:12:22;;;;;;;5.72;3.55;;;;;;;;;;358253;147;857887;-58
2022/05/23 00:13:24;;;;;;;7.39;3.71;;;;;;;;;;356624;148;859041;-58
2022/05/23 00:14:27;;;;;;;5.43;3.74;;;;;;;;;;357149;147;859007;-56
2022/05/23 00:15:29;;;;;;;5.65;3.36;;;;;;;;;;351805;151;858991;-59
2022/05/23 00:16:33;;;;;;;7.65;3.68;;;;;;;;;;358611;147;857624;-57
2022/05/23 00:17:35;;;;;;;8.89;3.96;;;;;;;;;;358599;147;858547;-58
2022/05/23 00:18:37;;;;;;;8.26;4.04;;;;;;;;;;357880;148;857772;-56
2022/05/23 00:19:39;;;;;;;6.61;3.51;;;;;;;;;;356834;147;858356;-57
2022/05/23 00:20:41;;;;;;;8.04;4.14;;;;;;;;;;355429;147;859541;-57
2022/05/23 00:21:48;;;;;;;8.73;3.96;;;;;;;;;;356553;148;866145;-57
2022/05/23 00:22:47;;;;;;;6.09;3.90;;;;;;;;;;352222;151;857196;-57
2022/05/23 00:23:49;;;;;;;7.83;4.06;;;;;;;;;;357175;147;857474;-58
2022/05/23 00:24:51;;;;;;;7.00;3.89;;;;;;;;;;358459;147;859427;-58
2022/05/23 00:25:53;;;;;;;5.71;4.33;;;;;;;;;;357994;148;857039;-57
2022/05/23 00:26:55;;;;;;;13.25;5.58;;;;;;;;;;358376;147;857346;-57
2022/05/23 00:27:57;;;;;;;7.89;4.68;;;;;;;;;;347481;152;866757;-58
2022/05/23 00:28:59;;;;;;;10.86;5.23;;;;;;;;;;358927;147;857168;-57
2022/05/23 00:30:00;;;;;;;9.92;5.31;;;;;;;;;;356527;147;866163;-57
2022/05/23 00:31:02;;;;;;;8.77;5.02;;;;;;;;;;359263;147;858836;-58
2022/05/23 00:36:04;;;;;;;8.49;5.11;;;;;;;;;;357741;147;857454;-58
2022/05/23 00:37:06;;;;;;;10.45;5.07;;;;;;;;;;357091;148;857428;-58
2022/05/23 00:38:07;;;;;;;10.69;5.30;;;;;;;;;;358716;147;858614;-57
2022/05/23 00:39:09;;;;;;;11.53;5.29;;;;;;;;;;359298;147;857591;-58
2022/05/23 00:40:13;;;;;;;11.13;5.26;;;;;;;;;;356899;147;857283;-56
2022/05/23 00:44:01;;;;;;;11.15;5.53;;;;;;;;;;357952;147;857386;-57
2022/05/23 00:45:03;;;;;;;9.73;6.16;;;;;;;;;;357162;147;859293;-57
2022/05/23 00:46:04;;;;;;;11.85;6.07;;;;;;;;;;357575;147;857257;-57
2022/05/23 00:47:20;;;;;;;10.19;5.51;;;;;;;;;;358160;147;859182;-57
2022/05/23 00:48:22;;;;;;;12.69;6.34;;;;;;;;;;358662;147;857260;-57
2022/05/23 00:49:26;;;;;;;13.15;6.29;;;;;;;;;;359279;147;858965;-57
2022/05/23 00:50:28;;;;;;;9.61;5.74;;;;;;;;;;348603;152;857665;-58
2022/05/23 00:51:30;;;;;;;11.27;5.71;;;;;;;;;;357437;148;858412;-57
2022/05/23 00:52:36;;;;;;;10.29;6.16;;;;;;;;;;357657;148;859131;-57
2022/05/23 00:53:38;;;;;;;13.28;6.46;;;;;;;;;;357772;147;866974;-57
2022/05/23 00:54:41;;;;;;;12.53;6.26;;;;;;;;;;358585;147;857274;-59
2022/05/23 00:55:44;;;;;;;12.19;6.45;;;;;;;;;;356772;148;858835;-59
2022/05/23 00:56:47;;;;;;;9.35;6.25;;;;;;;;;;356954;147;859084;-56
2022/05/23 00:57:50;;;;;;;12.53;6.61;;;;;;;;;;359189;147;857341;-60
2022/05/23 00:58:53;;;;;;;15.83;6.68;;;;;;;;;;357814;148;857397;-57
2022/05/23 00:59:55;;;;;;;12.12;6.83;;;;;;;;;;357939;147;859347;-58
2022/05/23 01:00:59;;;;;;;12.86;6.99;;;;;;;;;;357886;147;857887;-57
2022/05/23 01:02:01;;;;;;;15.55;7.05;;;;;;;;;;356278;147;864875;-57
2022/05/23 01:03:04;;;;;;;13.70;6.37;;;;;;;;;;357856;147;858314;-58
2022/05/23 01:04:06;;;;;;;14.80;7.21;;;;;;;;;;356923;148;858557;-57
2022/05/23 01:05:08;;;;;;;11.31;6.86;;;;;;;;;;357774;147;868004;-57
2022/05/23 01:06:10;;;;;;;11.59;6.91;;;;;;;;;;358956;147;857307;-57
2022/05/23 01:07:12;;;;;;;13.03;6.99;;;;;;;;;;358404;148;857056;-58
2022/05/23 01:08:14;;;;;;;13.17;6.44;;;;;;;;;;357205;148;857744;-57
2022/05/23 01:09:16;;;;;;;12.18;6.13;;;;;;;;;;357892;147;859457;-57
2022/05/23 01:10:19;;;;;;;11.26;6.74;;;;;;;;;;351565;150;858941;-57
2022/05/23 01:11:21;;;;;;;12.85;6.44;;;;;;;;;;351948;147;857806;-57
2022/05/23 01:12:22;;;;;;;7.35;4.77;;;;;;;;;;358139;147;858177;-57
2022/05/23 01:13:24;;;;;;;7.65;5.90;;;;;;;;;;358506;147;859090;-58
2022/05/23 01:14:26;;;;;;;12.19;6.24;;;;;;;;;;358272;148;860388;-57
2022/05/23 01:15:28;;;;;;;12.17;6.29;;;;;;;;;;357985;147;859997;-57
2022/05/23 01:16:30;;;;;;;12.00;6.05;;;;;;;;;;351775;150;858865;-56
2022/05/23 01:17:32;;;;;;;10.33;6.41;;;;;;;;;;351068;150;859137;-57
2022/05/23 01:18:33;;;;;;;9.43;5.72;;;;;;;;;;356980;147;857455;-57
2022/05/23 01:19:35;;;;;;;10.06;5.40;;;;;;;;;;357903;148;857228;-56
2022/05/23 01:20:37;;;;;;;9.48;5.81;;;;;;;;;;358039;148;857337;-56
2022/05/23 01:21:40;;;;;;;10.54;5.51;;;;;;;;;;356988;148;864866;-57
2022/05/23 01:22:43;;;;;;;7.96;5.64;;;;;;;;;;356598;148;857756;-57
2022/05/23 01:23:47;;;;;;;7.99;5.04;;;;;;;;;;356884;147;857203;-57
2022/05/23 01:24:50;;;;;;;8.56;5.39;;;;;;;;;;358225;148;857225;-58
2022/05/23 01:25:52;;;;;;;7.04;4.87;;;;;;;;;;357489;147;858824;-58
2022/05/23 01:26:55;;;;;;;9.33;5.71;;;;;;;;;;358253;147;857946;-57
2022/05/23 01:28:16;;;;;;;8.18;5.28;;;;;;;;;;358129;147;857311;-57
2022/05/23 01:29:17;;;;;;;9.97;5.46;;;;;;;;;;352706;149;857244;-58
2022/05/23 01:31:43;;;;;;;9.24;5.61;;;;;;;;;;343339;154;858993;-57
2022/05/23 01:32:44;;;;;;;8.51;5.74;;;;;;;;;;343466;154;858024;-59
2022/05/23 01:33:46;;;;;;;11.20;5.50;;;;;;;;;;342907;154;864713;-58
2022/05/23 01:34:48;;;;;;;10.84;5.81;;;;;;;;;;337497;156;857158;-58
2022/05/23 01:35:49;;;;;;;8.65;5.72;;;;;;;;;;339807;156;857537;-57
2022/05/23 01:36:51;;;;;;;6.37;5.56;;;;;;;;;;337564;156;865255;-57
2022/05/23 01:37:52;;;;;;;6.52;5.39;;;;;;;;;;339554;156;866922;-56
2022/05/23 01:38:54;;;;;;;5.95;5.15;;;;;;;;;;338437;157;857150;-57
2022/05/23 01:39:55;;;;;;;8.19;5.86;;;;;;;;;;338463;156;856148;-58
2022/05/23 01:40:57;;;;;;;8.05;5.21;;;;;;;;;;338313;157;856243;-57
2022/05/23 01:41:59;;;;;;;9.54;5.85;;;;;;;;;;338846;156;856256;-58
2022/05/23 01:43:00;;;;;;;8.34;5.99;;;;;;;;;;339017;156;856817;-58
2022/05/23 01:44:02;;;;;;;10.21;5.52;;;;;;;;;;338245;156;856253;-57
2022/05/23 01:45:04;;;;;;;7.80;6.39;;;;;;;;;;337905;156;856274;-56
2022/05/23 01:46:06;;;;;;;9.98;5.96;;;;;;;;;;337419;156;856440;-57
2022/05/23 01:47:08;;;;;;;8.24;5.53;;;;;;;;;;339374;156;856544;-57
2022/05/23 01:48:10;;;;;;;6.87;5.72;;;;;;;;;;338709;156;856380;-58
2022/05/23 01:49:12;;;;;;;8.61;5.36;;;;;;;;;;338884;154;856763;-57
2022/05/23 01:51:56;;;;;;;7.75;6.38;;;;;;;10.93;79.70;98989.08;403120;130;860349;-58
2022/05/23 01:52:58;;;;;;;6.53;4.63;;;;;;;10.86;79.86;98990.12;394135;133;858446;-58
2022/05/23 01:54:00;;;;;;;8.05;4.25;;;;;;;10.84;79.57;98997.07;394210;135;857158;-57
2022/05/23 01:55:03;;;;;;;4.36;3.77;;;;;;;10.84;79.75;98999.66;393684;135;857168;-57
2022/05/23 01:56:05;;;;;;;6.86;4.00;;;;;;;10.89;79.83;98992.63;393654;135;857687;-57
2022/05/23 01:57:09;;;;;;;5.67;4.23;;;;;;;10.99;79.83;98993.27;395114;133;866043;-58
2022/05/23 01:58:11;;;;;;;6.54;3.42;;;;;;;11.10;79.34;98997.27;394964;134;859269;-58
2022/05/23 02:01:53;;;;;;;5.36;3.67;;;;;;;11.44;77.80;99002.48;393380;135;865967;-57
2022/05/23 02:11:37;;;;;;;10.45;4.36;;;;;;;12.08;74.19;99005.06;378263;139;880868;-56
2022/05/23 02:12:39;;;;;;;7.62;4.21;;;;;;;12.08;74.19;99005.06;369284;143;857154;-57
2022/05/23 02:13:43;;;;;;;6.29;4.04;;;;;;;12.12;73.97;99005.80;372444;141;857265;-58
2022/05/23 02:14:46;;;;;;;5.33;3.08;;;;;;;12.15;73.97;99007.48;371963;141;864833;-57
2022/05/23 02:15:47;;;;;;;8.66;3.83;;;;;;;;;;370833;144;857857;-57
2022/05/23 02:16:49;;;;;;;6.45;3.72;;;;;;;;;;372995;141;858945;-57
2022/05/23 02:17:50;;;;;;;6.67;4.53;;;;;;;;;;368872;141;864782;-56
2022/05/23 02:18:52;;;;;;;6.99;4.56;;;;;;;;;;371064;141;858167;-57
2022/05/23 02:19:54;;;;;;;6.61;4.82;;;;;;;;;;370646;141;858881;-56
2022/05/23 02:20:55;;;;;;;9.61;5.19;;;;;;;;;;371137;141;864754;-57
2022/05/23 02:21:57;;;;;;;5.12;4.49;;;;;;;;;;369381;141;864776;-57
2022/05/23 02:22:59;;;;;;;7.64;4.86;;;;;;;;;;373074;141;864642;-57
2022/05/23 02:24:03;;;;;;;13.62;5.68;;;;;;;;;;371026;141;858876;-58
2022/05/23 02:25:05;;;;;;;11.72;5.32;;;;;;;;;;373826;141;858751;-57
2022/05/23 02:26:08;;;;;;;8.73;5.71;;;;;;;;;;372023;141;858078;-56
2022/05/23 02:27:09;;;;;;;8.79;5.86;;;;;;;;;;371263;144;861738;-56
2022/05/23 02:28:11;;;;;;;6.66;5.46;;;;;;;;;;371057;144;859034;-58
2022/05/23 02:29:14;;;;;;;6.26;5.21;;;;;;;;;;364325;144;858502;-55
2022/05/23 02:30:16;;;;;;;9.54;5.58;;;;;;;;;;360196;143;858504;-56
2022/05/23 02:31:18;;;;;;;10.37;5.91;;;;;;;;;;366706;143;857405;-57
2022/05/23 02:32:19;;;;;;;7.81;5.99;;;;;;;;;;365683;144;864967;-57
2022/05/23 02:33:21;;;;;;;9.26;6.31;;;;;;;;;;365662;144;858960;-56
2022/05/23 02:34:22;;;;;;;9.55;6.50;;;;;;;;;;365192;143;858988;-55
2022/05/23 02:35:24;;;;;;;8.19;6.45;;;;;;;;;;366585;143;857431;-57
2022/05/23 02:36:26;;;;;;;7.38;6.24;;;;;;;;;;363794;144;858038;-58
2022/05/23 02:37:27;;;;;;;7.36;5.81;;;;;;;;;;365251;144;868180;-56
2022/05/23 02:38:29;;;;;;;7.66;6.05;;;;;;;;;;366133;143;868587;-56
2022/05/23 02:39:30;;;;;;;9.47;6.62;;;;;;;;;;366817;143;857259;-58
2022/05/23 02:40:32;;;;;;;12.01;6.94;;;;;;;;;;364464;144;856141;-57
2022/05/23 02:41:34;;;;;;;7.84;6.16;;;;;;;;;;364645;144;864963;-57
2022/05/23 02:42:36;;;;;;;9.91;6.67;;;;;;;;;;365509;144;865677;-57
2022/05/23 02:43:37;;;;;;;12.64;6.71;;;;;;;;;;363953;144;866814;-55
2022/05/23 02:44:39;;;;;;;8.86;6.69;;;;;;;;;;364512;144;857289;-56
2022/05/23 02:45:41;;;;;;;7.26;6.46;;;;;;;;;;366527;143;865075;-56
2022/05/23 02:46:43;;;;;;;7.97;6.21;;;;;;;;;;366066;144;864902;-57
2022/05/23 02:47:45;;;;;;;10.04;6.29;;;;;;;;;;363165;144;866792;-56
2022/05/23 02:48:46;;;;;;;11.72;6.89;;;;;;;;;;366132;143;866061;-56
2022/05/23 02:49:48;;;;;;;10.81;6.84;;;;;;;;;;366544;143;865140;-58
2022/05/23 02:50:50;;;;;;;8.91;6.63;;;;;;;;;;371339;143;857689;-57
2022/05/23 02:51:52;;;;;;;9.62;6.64;;;;;;;;;;363038;143;866664;-57
2022/05/23 02:52:54;;;;;;;8.95;6.83;;;;;;;;;;365106;146;865595;-57
2022/05/23 02:53:55;;;;;;;9.78;6.91;;;;;;;;;;365344;144;857298;-58
2022/05/23 02:54:57;;;;;;;12.34;6.97;;;;;;;;;;365939;143;858724;-57
2022/05/23 02:55:58;;;;;;;9.44;6.91;;;;;;;;;;365285;144;858451;-57
2022/05/23 02:57:00;;;;;;;9.06;6.79;;;;;;;;;;364929;144;857904;-57
2022/05/23 02:58:02;;;;;;;11.20;6.52;;;;;;;;;;364496;144;864982;-58
2022/05/23 02:59:03;;;;;;;11.26;6.47;;;;;;;;;;364308;144;865501;-57
2022/05/23 03:00:06;;;;;;;8.34;6.94;;;;;;;;;;363520;144;857260;-58
2022/05/23 03:01:09;;;;;;;10.06;7.16;;;;;;;;;;364897;143;865025;-57
2022/05/23 03:03:32;;;;;;;8.03;6.71;;;;;;;;;;364197;144;857848;-55
2022/05/23 03:04:33;;;;;;;12.13;7.09;;;;;;;;;;364963;142;863912;-57
2022/05/23 03:05:40;;;;;;;12.46;6.67;;;;;;;;;;367727;143;856105;-57
2022/05/23 03:06:42;;;;;;;10.46;6.69;;;;;;;;;;364542;144;856160;-57
2022/05/23 03:07:43;;;;;;;9.30;6.53;;;;;;;;;;365512;144;856069;-57
2022/05/23 03:08:45;;;;;;;10.19;7.11;;;;;;;;;;366720;143;856154;-58
2022/05/23 03:09:46;;;;;;;9.45;7.09;;;;;;;;;;364332;143;856479;-57
2022/05/23 03:10:48;;;;;;;8.08;5.84;;;;;;;;;;366567;144;856102;-58
2022/05/23 03:11:50;;;;;;;9.29;6.23;;;;;;;;;;363355;144;863766;-57
2022/05/23 03:12:51;;;;;;;8.19;5.79;;;;;;;;;;362206;145;863711;-57
2022/05/23 03:13:55;;;;;;;11.14;5.34;;;;;;;;;;363025;145;856263;-58
2022/05/23 03:14:56;;;;;;;7.06;5.08;;;;;;;;;;356820;148;856203;-59
2022/05/23 03:15:58;;;;;;;7.66;5.45;;;;;;;;;;347112;151;856364;-58
2022/05/23 03:17:01;;;;;;;6.63;4.73;;;;;;;;;;353677;149;863691;-57
2022/05/23 03:18:02;;;;;;;6.64;5.15;;;;;;;;;;353234;150;856555;-58
2022/05/23 03:19:04;;;;;;;7.04;5.14;;;;;;;;;;353401;149;856890;-58
2022/05/23 03:20:06;;;;;;;8.43;5.60;;;;;;;;;;353848;149;863692;-58
2022/05/23 03:21:08;;;;;;;7.85;5.05;;;;;;;;;;353298;150;856221;-58
2022/05/23 03:27:29;;;;;;;6.48;3.96;;;;;;;;;;356394;148;856295;-56
2022/05/23 03:28:31;;;;;;;4.81;3.86;;;;;;;;;;355841;148;856452;-55
2022/05/23 03:29:33;;;;;;;8.59;5.44;;;;;;;;;;356374;148;863749;-60
2022/05/23 03:30:34;;;;;;;5.98;4.05;;;;;;;;;;347365;151;857299;-56
2022/05/23 03:31:36;;;;;;;8.22;5.04;;;;;;;;;;355591;148;866972;-57
2022/05/23 03:32:39;;;;;;;8.11;4.72;;;;;;;;;;355349;148;865381;-56
2022/05/23 03:33:41;;;;;;;7.82;4.49;;;;;;;;;;354931;148;866159;-56
2022/05/23 03:34:42;;;;;;;8.28;5.52;;;;;;;;;;357015;148;856230;-56
2022/05/23 03:35:45;;;;;;;6.94;5.15;;;;;;;;;;347740;153;856226;-57
2022/05/23 03:36:46;;;;;;;5.67;4.23;;;;;;;;;;356129;148;856258;-56
2022/05/23 03:37:48;;;;;;;7.71;5.45;;;;;;;;;;356092;148;856194;-57
2022/05/23 03:38:49;;;;;;;6.60;5.73;;;;;;;;;;355646;148;856104;-56
2022/05/23 03:39:51;;;;;;;11.85;5.29;;;;;;;;;;356758;148;856158;-56
2022/05/23 03:40:52;;;;;;;6.65;4.46;;;;;;;;;;347981;151;856152;-56
2022/05/23 03:41:54;;;;;;;6.09;4.07;;;;;;;;;;355219;148;863656;-57
2022/05/23 03:42:56;;;;;;;5.73;4.92;;;;;;;;;;355776;148;863758;-56
2022/05/23 03:43:57;;;;;;;7.77;4.26;;;;;;;;;;346882;151;856083;-55
2022/05/23 03:44:59;;;;;;;5.24;4.34;;;;;;;;;;353749;149;856140;-55
2022/05/23 03:46:07;;;;;;;7.46;4.73;;;;;;;;;;352902;149;856471;-55
2022/05/23 03:47:08;;;;;;;6.69;3.74;;;;;;;;;;351938;150;856603;-55
2022/05/23 03:48:10;;;;;;;4.98;3.37;;;;;;;;;;353453;149;856415;-54
2022/05/23 03:49:11;;;;;;;4.59;4.04;;;;;;;;;;355670;148;857063;-57
2022/05/23 03:52:00;;;;;;;6.19;4.44;;;;;;;10.83;74.46;99066.16;402259;130;856292;-55
2022/05/23 03:53:02;;;;;;;4.19;3.43;;;;;;;10.75;74.69;99074.08;390535;133;858715;-58
2022/05/23 03:54:04;;;;;;;2.95;2.63;;;;;;;10.77;74.50;99074.89;390520;133;857676;-59
2022/05/23 03:55:07;;;;;;;5.16;3.18;;;;;;;;;;392236;132;857184;-57
2022/05/23 03:56:10;;;;;;;8.41;3.50;;;;;;;;;;391946;133;865222;-57
2022/05/23 03:57:12;;;;;;;5.29;3.45;;;;;;;;;;392804;133;857680;-57
2022/05/23 03:58:13;;;;;;;6.43;4.33;;;;;;;;;;387183;135;857252;-57
2022/05/23 03:59:15;;;;;;;4.67;3.43;;;;;;;;;;389708;135;858397;-57
2022/05/23 04:00:19;;;;;;;7.37;4.91;;;;;;;;;;391651;135;857957;-59
2022/05/23 04:01:22;;;;;;;6.25;4.41;;;;;;;;;;390677;135;865244;-57
2022/05/23 04:02:23;;;;;;;6.23;4.58;;;;;;;;;;384522;136;864816;-60
2022/05/23 04:03:25;;;;;;;7.52;4.54;;;;;;;;;;393632;132;857155;-57
2022/05/23 04:04:39;;;;;;;7.21;5.39;;;;;;;;;;392214;132;857243;-59
2022/05/23 04:05:41;;;;;;;6.27;3.86;;;;;;;;;;391707;135;864810;-59
2022/05/23 04:06:43;;;;;;;5.41;4.08;;;;;;;;;;392880;135;858606;-58
2022/05/23 04:07:45;;;;;;;7.76;3.94;;;;;;;;;;391648;135;857144;-58
2022/05/23 04:08:46;;;;;;;7.54;3.61;;;;;;;;;;391192;135;857613;-59
2022/05/23 04:09:48;;;;;;;4.81;3.90;;;;;;;;;;389670;135;866667;-57
2022/05/23 04:10:50;;;;;;;6.65;4.90;;;;;;;;;;389842;136;864837;-56
2022/05/23 04:11:51;;;;;;;10.51;5.38;;;;;;;;;;381491;138;865600;-56
2022/05/23 04:12:53;;;;;;;6.66;5.16;;;;;;;;;;382110;138;859055;-56
2022/05/23 04:13:54;;;;;;;4.20;3.66;;;;;;;;;;388991;136;859168;-57
2022/05/23 04:14:56;;;;;;;7.57;4.71;;;;;;;;;;391741;135;857797;-57
2022/05/23 04:15:57;;;;;;;5.24;4.34;;;;;;;;;;389714;135;863131;-56
2022/05/23 04:16:59;;;;;;;6.28;3.97;;;;;;;;;;392235;136;864648;-57
2022/05/23 04:18:00;;;;;;;4.69;3.78;;;;;;;;;;391093;135;856980;-59
2022/05/23 04:19:05;;;;;;;5.51;4.05;;;;;;;;;;391866;135;857275;-57
2022/05/23 04:20:08;;;;;;;5.20;3.98;;;;;;;;;;389086;136;859318;-56
2022/05/23 04:21:10;;;;;;;5.44;4.33;;;;;;;;;;389905;136;858611;-57
2022/05/23 04:22:12;;;;;;;5.97;3.99;;;;;;;;;;388895;136;864818;-59
2022/05/23 04:23:14;;;;;;;5.81;4.64;;;;;;;;;;390560;136;859181;-57
2022/05/23 04:24:16;;;;;;;6.63;3.58;;;;;;;;;;389954;135;860141;-55
2022/05/23 04:25:17;;;;;;;9.43;5.73;;;;;;;;;;388736;136;856076;-57
2022/05/23 04:26:20;;;;;;;6.39;4.95;;;;;;;;;;389155;136;859541;-56
2022/05/23 04:27:21;;;;;;;6.21;5.61;;;;;;;;;;388408;136;858669;-56
2022/05/23 04:28:23;;;;;;;8.15;4.50;;;;;;;;;;390473;136;866449;-55
2022/05/23 04:29:25;;;;;;;7.88;4.56;;;;;;;;;;389208;136;856152;-59
2022/05/23 04:30:26;;;;;;;6.06;5.11;;;;;;;;;;390410;136;856157;-58
2022/05/23 04:31:28;;;;;;;5.19;4.49;;;;;;;;;;390496;136;863977;-57
2022/05/23 04:35:15;;;;;;;5.32;4.61;;;;;;;;;;389018;136;865133;-56
2022/05/23 04:36:19;;;;;;;6.88;5.58;;;;;;;;;;390459;136;858134;-56
2022/05/23 04:37:20;;;;;;;6.23;4.52;;;;;;;;;;388468;136;860166;-55
2022/05/23 04:38:22;;;;;;;6.62;4.41;;;;;;;;;;389477;136;857419;-55
2022/05/23 04:39:23;;;;;;;8.11;4.18;;;;;;;;;;389838;136;856405;-54
2022/05/23 04:40:26;;;;;;;6.01;3.99;;;;;;;;;;390386;136;857141;-56
2022/05/23 04:41:28;;;;;;;10.28;6.33;;;;;;;;;;390048;136;864614;-54
2022/05/23 04:42:30;;;;;;;7.23;6.52;;;;;;;;;;388824;136;856133;-56
2022/05/23 04:43:32;;;;;;;7.98;5.48;;;;;;;;;;389571;136;858884;-56
2022/05/23 04:44:33;;;;;;;10.05;6.05;;;;;;;;;;389272;136;863697;-55
2022/05/23 04:45:35;;;;;;;7.48;5.94;;;;;;;;;;390321;136;856327;-57
2022/05/23 04:49:39;;;;;;;9.61;6.71;;;;;;;;;;390688;136;864116;-56
2022/05/23 04:50:20;;;;;;;7.53;6.19;;;;;;;;;;388339;136;863790;-55
2022/05/23 04:51:22;;;;;;;8.56;6.39;;;;;;;;;;390028;136;856273;-55
2022/05/23 04:52:23;;;;;;;8.55;5.89;;;;;;;;;;388853;136;863780;-56
2022/05/23 04:53:25;;;;;;;6.61;5.27;;;;;;;;;;389862;136;856673;-56
2022/05/23 04:54:27;;;;;;;6.11;5.07;;;;;;;;;;389372;136;863785;-58
2022/05/23 04:55:28;;;;;;;6.62;5.08;;;;;;;;;;390420;136;865191;-57
2022/05/23 04:56:30;;;;;;;6.99;4.99;;;;;;;;;;388998;136;856047;-57
2022/05/23 05:09:14;;;;;;;6.78;4.84;;;;;;;12.59;68.62;99077.97;371241;142;880835;-55
2022/05/23 05:10:17;;;;;;;6.12;4.90;;;;;;;12.53;68.36;99083.35;358216;147;857215;-56
2022/05/23 05:11:18;;;;;;;6.44;5.60;;;;;;;12.45;68.95;99081.00;357572;147;857960;-57
2022/05/23 05:12:21;;;;;;;6.75;5.36;;;;;;;12.29;69.65;99085.77;356187;147;864883;-56
2022/05/23 05:13:23;;;;;;;6.11;5.02;;;;;;;12.36;70.09;99089.06;355789;147;865734;-57
2022/05/23 05:14:27;;;;;;;7.07;4.01;;;;;;;12.39;70.32;99084.61;355608;147;857234;-56
2022/05/23 05:15:32;;;;;;;4.58;3.64;;;;;;;12.25;69.62;99086.76;356928;147;864841;-58
2022/05/23 05:16:36;;;;;;;6.13;4.16;;;;;;;12.02;70.45;99090.86;350846;150;864814;-58
2022/05/23 05:17:38;;;;;;;5.09;3.41;;;;;;;12.06;71.07;99087.28;352279;150;858045;-59
2022/05/23 05:18:40;;;;;;;4.19;3.09;;;;;;;12.18;69.97;99085.23;359894;147;857511;-59
2022/05/23 05:19:41;;;;;;;6.74;3.54;;;;;;;12.25;69.93;99091.95;357799;148;865280;-58
2022/05/23 05:20:43;;;;;;;6.87;3.77;;;;;;;12.31;68.96;99091.77;355286;150;857166;-57
2022/05/23 05:21:45;;;;;;;6.39;3.44;;;;;;;12.24;68.96;99092.84;355397;147;857218;-56
2022/05/23 05:22:47;;;;;;;5.81;3.62;;;;;;;12.40;69.13;99090.67;357155;149;863563;-56
2022/05/23 05:23:49;;;;;;;6.40;4.14;;;;;;;12.55;68.64;99092.81;357422;147;859744;-57
2022/05/23 05:24:51;;;;;;;8.08;4.23;;;;;;;12.67;68.39;99091.57;357924;147;865518;-55
2022/05/23 05:25:53;;;;;;;6.09;4.16;;;;;;;12.67;67.68;99093.34;356946;147;857931;-58
2022/05/23 05:26:54;;;;;;;5.98;4.43;;;;;;;;;;358241;147;866066;-56
2022/05/23 05:27:56;;;;;;;6.22;4.39;;;;;;;;;;358114;147;857344;-55
2022/05/23 05:28:58;;;;;;;5.99;4.52;;;;;;;;;;356522;147;857514;-56
2022/05/23 05:30:00;;;;;;;6.31;4.52;;;;;;;;;;357287;147;856320;-56
2022/05/23 05:31:12;;;;;;;6.66;4.35;;;;;;;;;;355927;147;857477;-56
2022/05/23 05:32:16;;;;;;;6.20;4.44;;;;;;;;;;357548;147;864860;-56
2022/05/23 05:33:18;;;;;;;5.49;4.54;;;;;;;;;;357119;147;860460;-56
2022/05/23 05:34:21;;;;;;;8.37;4.45;;;;;;;;;;358524;147;857363;-59
2022/05/23 05:35:27;;;;;;;6.49;4.63;;;;;;;;;;357471;147;866358;-57
2022/05/23 05:36:30;;;;;;;7.07;4.89;;;;;;;;;;355629;147;865838;-57
2022/05/23 05:37:34;;;;;;;8.94;4.56;;;;;;;;;;358149;147;860219;-56
2022/05/23 05:38:37;;;;;;;6.72;4.87;;;;;;;;;;357333;147;860734;-57
2022/05/23 05:39:39;;;;;;;8.01;4.97;;;;;;;;;;358511;147;859088;-56
2022/05/23 05:40:40;;;;;;;6.35;5.40;;;;;;;;;;357512;147;859103;-56
2022/05/23 05:41:45;;;;;;;5.90;4.85;;;;;;;;;;358431;147;865301;-53
2022/05/23 05:42:48;;;;;;;6.31;5.02;;;;;;;;;;357133;147;864824;-55
2022/05/23 05:43:50;;;;;;;7.76;4.67;;;;;;;;;;356515;147;857362;-57
2022/05/23 05:44:53;;;;;;;8.61;5.08;;;;;;;;;;356082;147;858991;-56
2022/05/23 05:45:58;;;;;;;8.13;4.65;;;;;;;;;;356334;148;857249;-57
2022/05/23 05:47:00;;;;;;;7.47;4.52;;;;;;;;;;357573;147;863603;-56
2022/05/23 05:48:02;;;;;;;7.60;4.59;;;;;;;;;;356640;147;857478;-56
2022/05/23 05:49:05;;;;;;;5.98;4.59;;;;;;;;;;350504;150;858670;-56
2022/05/23 05:50:08;;;;;;;8.36;4.57;;;;;;;;;;349928;150;856430;-56
2022/05/23 05:51:11;;;;;;;6.25;4.45;;;;;;;;;;357911;147;856336;-56
2022/05/23 05:52:13;;;;;;;11.01;4.97;;;;;;;;;;358128;147;858556;-56
2022/05/23 05:53:17;;;;;;;7.32;4.77;;;;;;;;;;352445;150;858952;-57
2022/05/23 05:54:21;;;;;;;7.38;4.66;;;;;;;;;;349608;147;857460;-58
2022/05/23 05:55:22;;;;;;;9.19;4.70;;;;;;;;;;360086;147;857126;-57
2022/05/23 05:56:24;;;;;;;10.80;5.21;;;;;;;;;;355566;147;858840;-56
2022/05/23 05:57:26;;;;;;;8.33;5.15;;;;;;;;;;358606;147;866707;-58
2022/05/23 05:58:28;;;;;;;11.71;5.80;;;;;;;;;;358802;147;865132;-57
2022/05/23 05:59:30;;;;;;;12.19;6.17;;;;;;;;;;358413;147;859927;-57
2022/05/23 06:00:31;;;;;;;9.66;6.24;;;;;;;;;;355113;150;858220;-56
2022/05/23 06:01:33;;;;;;;10.15;6.89;;;;;;;;;;359606;147;866439;-57
2022/05/23 06:02:37;;;;;;;10.45;6.61;;;;;;;;;;358009;147;857164;-56
2022/05/23 06:03:40;;;;;;;11.68;6.93;;;;;;;;;;359006;147;856422;-55
2022/05/23 06:04:41;;;;;;;8.21;6.05;;;;;;;;;;356126;148;857340;-58
2022/05/23 06:12:23;;;;;;;16.29;7.83;;;;;;;;;;356139;147;857683;-56
2022/05/23 06:13:25;;;;;;;12.84;8.10;;;;;;;;;;358929;147;858769;-56
2022/05/23 06:14:27;;;;;;;11.04;7.49;;;;;;;;;;356796;147;857273;-55
2022/05/23 06:15:28;;;;;;;12.32;7.26;;;;;;;;;;356565;147;857668;-56
2022/05/23 06:16:31;;;;;;;14.39;7.76;;;;;;;;;;358444;147;857318;-56
2022/05/23 06:17:37;;;;;;;11.67;7.86;;;;;;;;;;357360;147;865010;-56
2022/05/23 06:18:39;;;;;;;13.33;7.22;;;;;;;;;;356023;147;865231;-57
2022/05/23 06:19:41;;;;;;;13.77;7.76;;;;;;;;;;359282;147;857279;-57
2022/05/23 06:20:43;;;;;;;14.91;7.89;;;;;;;;;;356680;147;865024;-56
2022/05/23 06:21:45;;;;;;;13.13;8.33;;;;;;;;;;357323;147;857112;-55
2022/05/23 06:22:46;;;;;;;16.91;9.39;;;;;;;;;;357323;148;865737;-57
2022/05/23 06:23:48;;;;;;;17.40;9.71;;;;;;;;;;356818;147;865178;-57
2022/05/23 06:24:50;;;;;;;16.70;9.59;;;;;;;;;;355744;147;859810;-56
2022/05/23 06:25:51;;;;;;;18.51;9.38;;;;;;;;;;356879;147;857461;-57
2022/05/23 06:26:53;;;;;;;18.28;10.15;;;;;;;;;;357518;147;860122;-57
2022/05/23 06:27:55;;;;;;;15.41;9.04;;;;;;;;;;356850;149;865833;-55
2022/05/23 06:28:56;;;;;;;16.78;9.56;;;;;;;;;;356175;147;858905;-56
2022/05/23 06:29:58;;;;;;;18.77;9.55;;;;;;;;;;357632;150;864862;-56
2022/05/23 06:30:59;;;;;;;16.93;9.15;;;;;;;;;;358677;148;857679;-56
2022/05/23 06:32:04;;;;;;;15.54;9.53;;;;;;;;;;357363;147;864963;-55
2022/05/23 06:33:06;;;;;;;19.66;9.95;;;;;;;;;;356884;149;865006;-56
2022/05/23 06:34:07;;;;;;;14.59;9.06;;;;;;;;;;357350;147;857329;-56
2022/05/23 06:35:09;;;;;;;21.54;9.88;;;;;;;;;;358043;147;858991;-55
2022/05/23 06:36:12;;;;;;;16.42;9.06;;;;;;;;;;356850;150;865079;-59
2022/05/23 06:37:13;;;;;;;18.00;9.69;;;;;;;;;;355273;147;864925;-55
2022/05/23 06:38:16;;;;;;;19.01;10.71;;;;;;;;;;355706;147;857147;-57
2022/05/23 06:39:17;;;;;;;17.93;10.38;;;;;;;;;;355448;148;867129;-56
2022/05/23 06:40:20;;;;;;;19.76;9.55;;;;;;;;;;359277;148;856235;-57
2022/05/23 06:41:21;;;;;;;19.07;10.11;;;;;;;;;;357005;147;858964;-57
2022/05/23 06:42:23;;;;;;;14.69;9.17;;;;;;;;;;355516;147;865905;-56
2022/05/23 06:43:24;;;;;;;17.77;9.21;;;;;;;;;;356208;147;865758;-55
2022/05/23 06:44:26;;;;;;;15.69;9.41;;;;;;;;;;358271;149;858610;-56
2022/05/23 06:45:28;;;;;;;16.84;7.98;;;;;;;;;;350324;150;864219;-55
2022/05/23 06:46:30;;;;;;;13.40;7.39;;;;;;;;;;351102;150;865179;-55
2022/05/23 06:47:32;;;;;;;15.37;8.36;;;;;;;;;;355735;147;866900;-58
2022/05/23 06:48:34;;;;;;;16.95;8.68;;;;;;;;;;355048;147;858124;-58
2022/05/23 06:49:36;;;;;;;14.62;8.29;;;;;;;;;;358004;147;859124;-58
2022/05/23 06:50:37;;;;;;;14.94;8.26;;;;;;;;;;357921;147;859731;-59